createdAt,value
2022-11-05T00:00:06.052Z,18.47
2022-11-05T00:02:51.639Z,15.73
2022-11-05T00:05:37.208Z,19.43
2022-11-05T00:08:23.992Z,23.40
2022-11-05T00:10:51.044Z,18.90
2022-11-05T00:13:36.671Z,18.47
2022-11-05T00:16:22.482Z,16.53
2022-11-05T00:19:06.614Z,19.70
2022-11-05T00:21:53.698Z,16.27
2022-11-05T00:24:39.888Z,16.33
2022-11-05T00:27:07.258Z,12.73
2022-11-05T00:29:34.360Z,15.20
2022-11-05T00:32:01.897Z,16.47
2022-11-05T00:34:28.849Z,13.43
2022-11-05T00:36:56.360Z,16.13
2022-11-05T00:39:23.290Z,16.63
2022-11-05T00:42:10.168Z,15.27
2022-11-05T00:44:55.539Z,16.90
2022-11-05T00:47:41.147Z,17.93
2022-11-05T00:50:10.703Z,16.37
2022-11-05T00:52:56.936Z,17.93
2022-11-05T00:55:25.618Z,14.93
2022-11-05T00:57:52.770Z,16.70
2022-11-05T01:00:20.170Z,15.90
2022-11-05T01:02:47.478Z,14.97
2022-11-05T01:05:14.529Z,14.27
2022-11-05T01:07:41.554Z,15.97
2022-11-05T01:10:09.222Z,12.47
2022-11-05T01:12:36.590Z,13.53
2022-11-05T01:15:04.096Z,15.10
2022-11-05T01:17:31.062Z,21.10
2022-11-05T01:19:58.060Z,12.47
2022-11-05T01:22:24.989Z,10.60
2022-11-05T01:24:52.027Z,14.07
2022-11-05T01:27:18.982Z,13.97
2022-11-05T01:29:45.982Z,16.33
2022-11-05T01:32:12.951Z,14.03
2022-11-05T01:34:39.949Z,14.73
2022-11-05T01:37:06.904Z,19.17
2022-11-05T01:39:33.872Z,12.43
2022-11-05T01:42:00.867Z,12.77
2022-11-05T01:44:54.501Z,13.40
2022-11-05T01:47:57.906Z,15.20
2022-11-05T01:50:39.369Z,16.70
2022-11-05T01:53:20.350Z,18.50
2022-11-05T01:55:54.616Z,14.43
2022-11-05T01:58:23.911Z,17.70
2022-11-05T02:00:51.172Z,10.50
2022-11-05T02:03:19.299Z,14.90
2022-11-05T02:05:48.304Z,18.03
2022-11-05T02:08:48.358Z,15.43
2022-11-05T02:11:18.447Z,14.60
2022-11-05T02:13:46.112Z,13.33
2022-11-05T02:16:46.293Z,12.13
2022-11-05T02:19:40.415Z,15.80
2022-11-05T02:22:10.378Z,15.10
2022-11-05T02:25:08.431Z,16.10
2022-11-05T02:27:49.354Z,14.90
2022-11-05T02:30:37.949Z,17.73
2022-11-05T02:33:30.890Z,15.90
2022-11-05T02:36:24.524Z,17.10
2022-11-05T02:39:14.642Z,22.17
2022-11-05T02:42:04.701Z,18.13
2022-11-05T02:45:01.258Z,17.30
2022-11-05T02:47:36.172Z,16.60
2022-11-05T02:50:33.666Z,17.33
2022-11-05T02:53:23.542Z,15.73
2022-11-05T02:55:59.419Z,11.83
2022-11-05T02:58:30.551Z,12.77
2022-11-05T03:01:02.166Z,15.37
2022-11-05T03:03:37.512Z,15.20
2022-11-05T03:06:23.370Z,11.07
2022-11-05T03:09:14.497Z,14.53
2022-11-05T03:11:57.635Z,14.23
2022-11-05T03:14:53.887Z,14.83
2022-11-05T03:17:26.940Z,14.93
2022-11-05T03:19:59.666Z,13.30
2022-11-05T03:22:31.400Z,16.80
2022-11-05T03:25:03.574Z,12.93
2022-11-05T03:27:34.588Z,16.57
2022-11-05T03:30:06.383Z,15.53
2022-11-05T03:32:37.751Z,18.47
2022-11-05T03:35:10.581Z,17.10
2022-11-05T03:37:41.675Z,12.60
2022-11-05T03:40:12.215Z,16.87
2022-11-05T03:42:43.920Z,13.80
2022-11-05T03:45:21.393Z,16.13
2022-11-05T03:47:52.011Z,18.13
2022-11-05T03:50:22.086Z,14.37
2022-11-05T03:53:11.194Z,13.90
2022-11-05T03:56:11.438Z,16.97
2022-11-05T03:58:42.970Z,13.63
2022-11-05T04:01:10.568Z,17.50
2022-11-05T04:03:37.483Z,15.17
2022-11-05T04:06:28.300Z,15.00
2022-11-05T04:09:14.010Z,20.80
2022-11-05T04:11:59.817Z,16.40
2022-11-05T04:14:27.003Z,12.90
2022-11-05T04:17:09.850Z,13.83
2022-11-05T04:19:58.150Z,14.33
2022-11-05T04:22:45.766Z,12.90
2022-11-05T04:25:14.304Z,14.40
2022-11-05T04:27:41.590Z,13.83
2022-11-05T04:30:18.596Z,12.97
2022-11-05T04:33:08.353Z,16.03
2022-11-05T04:35:39.864Z,13.83
2022-11-05T04:38:09.703Z,17.23
2022-11-05T04:40:37.196Z,17.23
2022-11-05T04:43:04.833Z,15.20
2022-11-05T04:45:35.861Z,12.50
2022-11-05T04:48:03.889Z,11.20
2022-11-05T04:50:31.762Z,16.13
2022-11-05T04:52:59.326Z,11.50
2022-11-05T04:55:26.814Z,12.70
2022-11-05T04:57:54.508Z,11.77
2022-11-05T05:00:22.941Z,12.83
2022-11-05T05:02:50.377Z,21.57
2022-11-05T05:05:17.412Z,15.47
2022-11-05T05:07:44.563Z,12.10
2022-11-05T05:10:11.926Z,15.33
2022-11-05T05:12:39.109Z,11.50
2022-11-05T05:15:06.553Z,13.13
2022-11-05T05:17:33.528Z,15.97
2022-11-05T05:20:19.046Z,16.00
2022-11-05T05:22:53.056Z,18.77
2022-11-05T05:25:20.095Z,16.87
2022-11-05T05:27:47.266Z,20.83
2022-11-05T05:30:14.222Z,12.07
2022-11-05T05:32:41.276Z,14.40
2022-11-05T05:35:08.741Z,14.60
2022-11-05T05:37:35.674Z,12.50
2022-11-05T05:40:02.754Z,15.57
2022-11-05T05:42:29.682Z,15.77
2022-11-05T05:44:56.668Z,12.60
2022-11-05T05:47:23.725Z,14.80
2022-11-05T05:49:50.715Z,13.00
2022-11-05T05:52:17.670Z,11.87
2022-11-05T05:54:44.740Z,21.70
2022-11-05T05:57:11.737Z,16.03
2022-11-05T05:59:38.755Z,17.27
2022-11-05T06:02:05.937Z,16.00
2022-11-05T06:04:32.954Z,13.80
2022-11-05T06:06:59.887Z,13.50
2022-11-05T06:09:26.847Z,18.00
2022-11-05T06:11:53.805Z,13.83
2022-11-05T06:14:20.835Z,15.60
2022-11-05T06:16:47.941Z,16.33
2022-11-05T06:19:14.893Z,15.37
2022-11-05T06:21:42.020Z,15.63
2022-11-05T06:24:09.240Z,14.73
2022-11-05T06:26:42.445Z,14.00
2022-11-05T06:29:13.367Z,14.97
2022-11-05T06:31:40.559Z,17.97
2022-11-05T06:34:07.637Z,14.33
2022-11-05T06:36:34.650Z,14.27
2022-11-05T06:39:01.616Z,12.73
2022-11-05T06:41:28.525Z,13.00
2022-11-05T06:43:55.452Z,14.33
2022-11-05T06:46:22.370Z,15.23
2022-11-05T06:48:49.386Z,19.77
2022-11-05T06:51:16.333Z,15.20
2022-11-05T06:53:43.345Z,18.00
2022-11-05T06:56:10.474Z,15.00
2022-11-05T06:58:37.706Z,13.47
2022-11-05T07:01:08.566Z,14.20
2022-11-05T07:03:39.330Z,16.47
2022-11-05T07:06:07.538Z,15.87
2022-11-05T07:08:36.008Z,14.80
2022-11-05T07:11:03.446Z,13.37
2022-11-05T07:13:30.452Z,13.50
2022-11-05T07:15:57.803Z,13.87
2022-11-05T07:18:25.084Z,12.03
2022-11-05T07:20:52.039Z,15.17
2022-11-05T07:23:19.250Z,13.17
2022-11-05T07:25:46.248Z,13.37
2022-11-05T07:28:14.616Z,15.90
2022-11-05T07:30:41.988Z,12.70
2022-11-05T07:33:09.616Z,16.73
2022-11-05T07:35:36.878Z,13.67
2022-11-05T07:38:03.843Z,14.43
2022-11-05T07:40:31.014Z,16.03
2022-11-05T07:43:00.828Z,12.13
2022-11-05T07:45:29.554Z,15.93
2022-11-05T07:48:01.529Z,16.07
2022-11-05T07:50:34.231Z,13.10
2022-11-05T07:53:03.654Z,14.23
2022-11-05T07:55:31.326Z,17.90
2022-11-05T07:57:58.792Z,11.27
2022-11-05T08:00:26.845Z,16.10
2022-11-05T08:03:08.696Z,10.07
2022-11-05T08:05:38.484Z,13.33
2022-11-05T08:08:07.576Z,15.93
2022-11-05T08:10:35.497Z,13.27
2022-11-05T08:13:02.829Z,14.80
2022-11-05T08:15:29.785Z,9.60
2022-11-05T08:18:01.331Z,13.93
2022-11-05T08:20:28.412Z,15.50
2022-11-05T08:22:56.049Z,15.57
2022-11-05T08:25:23.238Z,9.07
2022-11-05T08:27:58.129Z,12.23
2022-11-05T08:30:25.965Z,14.60
2022-11-05T08:32:57.518Z,9.00
2022-11-05T08:35:24.712Z,12.80
2022-11-05T08:37:55.483Z,7.57
2022-11-05T08:40:22.421Z,9.53
2022-11-05T08:42:49.394Z,12.07
2022-11-05T08:45:16.454Z,7.40
2022-11-05T08:47:43.402Z,8.33
2022-11-05T08:50:10.506Z,7.23
2022-11-05T08:52:40.973Z,9.83
2022-11-05T08:55:08.489Z,12.87
2022-11-05T08:57:35.462Z,9.17
2022-11-05T09:00:02.575Z,6.47
2022-11-05T09:02:29.729Z,7.37
2022-11-05T09:04:56.751Z,7.67
2022-11-05T09:07:23.736Z,7.00
2022-11-05T09:09:50.712Z,9.00
2022-11-05T09:12:17.810Z,9.93
2022-11-05T09:14:44.753Z,10.23
2022-11-05T09:17:20.507Z,5.57
2022-11-05T09:19:47.666Z,9.57
2022-11-05T09:22:15.173Z,9.03
2022-11-05T09:24:43.358Z,6.90
2022-11-05T09:27:11.987Z,7.80
2022-11-05T09:29:39.838Z,7.00
2022-11-05T09:32:06.797Z,9.83
2022-11-05T09:34:34.074Z,9.20
2022-11-05T09:37:01.133Z,6.77
2022-11-05T09:39:28.124Z,9.40
2022-11-05T09:41:59.975Z,7.93
2022-11-05T09:44:48.516Z,8.03
2022-11-05T09:47:52.162Z,8.97
2022-11-05T09:50:33.791Z,7.23
2022-11-05T09:53:01.853Z,6.97
2022-11-05T09:55:48.859Z,8.23
2022-11-05T09:58:43.747Z,7.90
2022-11-05T10:01:21.582Z,8.80
2022-11-05T10:03:52.208Z,7.13
2022-11-05T10:06:25.154Z,9.63
2022-11-05T10:09:01.595Z,9.00
2022-11-05T10:11:47.908Z,10.00
2022-11-05T10:14:24.669Z,7.93
2022-11-05T10:17:17.843Z,9.83
2022-11-05T10:19:54.555Z,6.83
2022-11-05T10:22:21.516Z,6.63
2022-11-05T10:24:50.339Z,6.03
2022-11-05T10:27:31.221Z,7.17
2022-11-05T10:29:58.647Z,6.03
2022-11-05T10:32:30.138Z,7.40
2022-11-05T10:34:59.998Z,10.07
2022-11-05T10:37:27.967Z,9.43
2022-11-05T10:39:55.454Z,7.67
2022-11-05T10:42:25.222Z,5.97
2022-11-05T10:45:10.755Z,6.20
2022-11-05T10:47:43.259Z,7.50
2022-11-05T10:50:13.833Z,7.30
2022-11-05T10:53:17.495Z,7.50
2022-11-05T10:55:48.016Z,8.40
2022-11-05T10:58:17.942Z,9.70
2022-11-05T11:01:07.801Z,8.03
2022-11-05T11:03:48.905Z,7.07
2022-11-05T11:06:34.674Z,9.10
2022-11-05T11:09:05.268Z,9.70
2022-11-05T11:11:33.650Z,7.97
2022-11-05T11:14:05.336Z,8.60
2022-11-05T11:16:37.075Z,6.53
2022-11-05T11:19:20.680Z,8.13
2022-11-05T11:22:09.260Z,10.80
2022-11-05T11:24:43.983Z,4.43
2022-11-05T11:27:26.992Z,10.50
2022-11-05T11:30:02.369Z,10.07
2022-11-05T11:32:40.092Z,7.80
2022-11-05T11:35:18.609Z,7.90
2022-11-05T11:37:47.311Z,7.13
2022-11-05T11:40:25.758Z,6.57
2022-11-05T11:42:57.023Z,11.57
2022-11-05T11:45:46.834Z,6.97
2022-11-05T11:48:24.830Z,11.00
2022-11-05T11:50:52.403Z,8.27
2022-11-05T11:53:22.148Z,7.73
2022-11-05T11:55:55.252Z,8.00
2022-11-05T11:58:37.814Z,10.47
2022-11-05T12:01:20.848Z,12.67
2022-11-05T12:04:06.370Z,12.20
2022-11-05T12:06:39.515Z,6.50
2022-11-05T12:09:17.752Z,7.50
2022-11-05T12:11:53.755Z,6.37
2022-11-05T12:14:32.989Z,10.93
2022-11-05T12:17:12.080Z,8.87
2022-11-05T12:19:59.369Z,10.40
2022-11-05T12:22:58.963Z,9.77
2022-11-05T12:25:35.982Z,11.03
2022-11-05T12:29:04.676Z,11.00
2022-11-05T12:31:28.756Z,13.30
2022-11-05T12:34:17.426Z,10.07
2022-11-05T12:37:11.818Z,12.27
2022-11-05T12:39:57.276Z,13.63
2022-11-05T12:42:32.934Z,12.03
2022-11-05T12:45:23.715Z,9.00
2022-11-05T12:48:28.257Z,9.87
2022-11-05T12:51:09.990Z,10.37
2022-11-05T12:54:03.937Z,8.87
2022-11-05T12:56:41.700Z,10.30
2022-11-05T12:59:14.706Z,8.97
2022-11-05T13:01:48.946Z,7.87
2022-11-05T13:04:41.631Z,9.27
2022-11-05T13:07:12.006Z,7.53
2022-11-05T13:09:43.059Z,12.13
2022-11-05T13:12:22.721Z,7.60
2022-11-05T13:15:17.774Z,10.40
2022-11-05T13:17:59.896Z,13.47
2022-11-05T13:20:33.065Z,11.10
2022-11-05T13:23:14.871Z,7.97
2022-11-05T13:25:48.302Z,9.83
2022-11-05T13:28:24.118Z,10.10
2022-11-05T13:30:56.043Z,7.33
2022-11-05T13:33:28.186Z,8.83
2022-11-05T13:36:46.948Z,10.43
2022-11-05T13:39:29.187Z,8.27
2022-11-05T13:42:14.183Z,10.60
2022-11-05T13:45:14.369Z,11.03
2022-11-05T13:48:05.494Z,8.83
2022-11-05T13:50:59.983Z,10.33
2022-11-05T13:53:42.763Z,10.53
2022-11-05T13:56:32.731Z,8.43
2022-11-05T13:59:21.457Z,8.37
2022-11-05T14:02:00.218Z,12.03
2022-11-05T14:04:38.519Z,11.87
2022-11-05T14:07:25.810Z,9.33
2022-11-05T14:10:15.835Z,10.70
2022-11-05T14:12:49.242Z,8.80
2022-11-05T14:15:18.775Z,10.30
2022-11-05T14:17:56.538Z,11.13
2022-11-05T14:20:57.478Z,10.20
2022-11-05T14:23:24.357Z,10.10
2022-11-05T14:25:51.460Z,11.87
2022-11-05T14:28:43.965Z,8.37
2022-11-05T14:34:54.028Z,8.57
2022-11-05T14:37:46.950Z,11.10
2022-11-05T14:40:26.132Z,11.67
2022-11-05T14:42:56.042Z,10.30
2022-11-05T14:45:30.601Z,8.13
2022-11-05T14:48:02.936Z,13.90
2022-11-05T14:50:43.011Z,12.30
2022-11-05T14:53:31.238Z,10.47
2022-11-05T14:56:04.769Z,13.87
2022-11-05T14:58:37.161Z,10.30
2022-11-05T15:01:26.039Z,11.20
2022-11-05T15:04:17.369Z,11.93
2022-11-05T15:07:02.551Z,12.57
2022-11-05T15:09:52.021Z,11.60
2022-11-05T15:12:22.529Z,10.63
2022-11-05T15:15:18.690Z,11.93
2022-11-05T15:18:13.991Z,11.40
2022-11-05T15:20:45.108Z,12.60
2022-11-05T15:23:16.693Z,15.00
2022-11-05T15:25:54.778Z,13.17
2022-11-05T15:28:54.759Z,15.53
2022-11-05T15:31:36.196Z,13.73
2022-11-05T15:34:30.951Z,18.93
2022-11-05T15:37:20.146Z,15.30
2022-11-05T15:39:48.744Z,19.33
2022-11-05T15:42:22.953Z,17.10
2022-11-05T15:44:55.125Z,13.90
2022-11-05T15:47:23.749Z,15.70
2022-11-05T15:49:57.943Z,14.43
2022-11-05T15:52:34.771Z,12.80
2022-11-05T15:55:13.925Z,16.20
2022-11-05T15:57:51.258Z,18.93
2022-11-05T16:00:24.292Z,15.53
2022-11-05T16:02:56.064Z,16.30
2022-11-05T16:05:25.982Z,11.23
2022-11-05T16:07:53.348Z,17.93
2022-11-05T16:10:30.728Z,17.13
2022-11-05T16:12:57.937Z,17.40
2022-11-05T16:15:29.526Z,16.33
2022-11-05T16:17:59.586Z,15.10
2022-11-05T16:20:38.406Z,16.60
2022-11-05T16:23:08.380Z,15.17
2022-11-05T16:25:42.502Z,20.00
2022-11-05T16:28:30.225Z,21.17
2022-11-05T16:31:02.609Z,20.67
2022-11-05T16:33:43.978Z,18.30
2022-11-05T16:36:11.678Z,21.40
2022-11-05T16:38:38.919Z,17.07
2022-11-05T16:41:06.102Z,17.67
2022-11-05T16:43:33.577Z,19.33
2022-11-05T16:46:01.905Z,16.77
2022-11-05T16:48:28.918Z,22.23
2022-11-05T16:50:55.888Z,19.33
2022-11-05T16:53:23.075Z,20.50
2022-11-05T16:55:50.074Z,20.97
2022-11-05T16:58:26.720Z,18.03
2022-11-05T17:01:04.281Z,17.60
2022-11-05T17:03:31.572Z,17.07
2022-11-05T17:05:58.719Z,13.13
2022-11-05T17:08:25.769Z,14.80
2022-11-05T17:10:52.826Z,15.83
2022-11-05T17:13:20.562Z,15.87
2022-11-05T17:15:49.383Z,14.80
2022-11-05T17:18:18.967Z,16.83
2022-11-05T17:20:54.743Z,16.37
2022-11-05T17:23:24.154Z,14.63
2022-11-05T17:25:54.438Z,20.47
2022-11-05T17:28:21.917Z,17.10
2022-11-05T17:30:52.772Z,14.23
2022-11-05T17:33:21.804Z,13.50
2022-11-05T17:35:49.273Z,30.03
2022-11-05T17:38:16.414Z,19.40
2022-11-05T17:40:43.357Z,30.07
2022-11-05T17:43:11.380Z,30.27
2022-11-05T17:45:44.325Z,24.27
2022-11-05T17:48:11.811Z,30.43
2022-11-05T17:50:43.805Z,26.93
2022-11-05T17:53:12.097Z,22.17
2022-11-05T17:55:44.339Z,35.87
2022-11-05T17:58:12.402Z,26.90
2022-11-05T18:00:40.442Z,16.27
2022-11-05T18:03:07.492Z,17.70
2022-11-05T18:05:35.005Z,15.67
2022-11-05T18:08:02.291Z,27.43
2022-11-05T18:10:29.411Z,29.30
2022-11-05T18:12:56.380Z,22.17
2022-11-05T18:15:23.654Z,22.93
2022-11-05T18:17:50.778Z,16.17
2022-11-05T18:20:19.430Z,12.83
2022-11-05T18:22:49.615Z,15.23
2022-11-05T18:25:17.567Z,12.07
2022-11-05T18:27:45.153Z,16.60
2022-11-05T18:30:15.473Z,13.70
2022-11-05T18:32:43.934Z,15.33
2022-11-05T18:35:11.570Z,11.73
2022-11-05T18:37:39.089Z,16.07
2022-11-05T18:40:07.306Z,32.13
2022-11-05T18:42:34.322Z,40.80
2022-11-05T18:45:01.295Z,19.57
2022-11-05T18:47:28.324Z,12.07
2022-11-05T18:49:55.268Z,19.50
2022-11-05T18:52:22.214Z,26.20
2022-11-05T18:54:49.184Z,19.50
2022-11-05T18:57:16.119Z,15.47
2022-11-05T18:59:46.734Z,13.87
2022-11-05T19:02:14.675Z,17.43
2022-11-05T19:04:55.293Z,18.60
2022-11-05T19:07:29.475Z,17.20
2022-11-05T19:09:56.489Z,16.53
2022-11-05T19:12:23.416Z,21.47
2022-11-05T19:14:50.419Z,35.00
2022-11-05T19:17:17.405Z,62.90
2022-11-05T19:19:44.356Z,43.37
2022-11-05T19:22:11.503Z,32.10
2022-11-05T19:24:38.428Z,41.27
2022-11-05T19:27:05.405Z,14.20
2022-11-05T19:29:32.441Z,22.40
2022-11-05T19:31:59.395Z,23.90
2022-11-05T19:34:26.458Z,17.37
2022-11-05T19:36:53.461Z,17.23
2022-11-05T19:39:20.447Z,16.50
2022-11-05T19:41:49.147Z,15.03
2022-11-05T19:44:16.173Z,16.53
2022-11-05T19:46:44.032Z,12.27
2022-11-05T19:49:11.683Z,13.17
2022-11-05T19:51:39.607Z,17.33
2022-11-05T19:54:06.695Z,15.20
2022-11-05T19:56:35.075Z,17.63
2022-11-05T19:59:03.470Z,15.87
2022-11-05T20:01:31.566Z,13.30
2022-11-05T20:03:59.546Z,16.53
2022-11-05T20:06:31.949Z,16.53
2022-11-05T20:11:49.862Z,26.90
2022-11-05T20:14:17.207Z,20.53
2022-11-05T20:16:46.418Z,33.57
2022-11-05T20:19:15.818Z,25.60
2022-11-05T20:21:43.072Z,34.90
2022-11-05T20:24:13.200Z,25.37
2022-11-05T20:26:40.449Z,20.87
2022-11-05T20:29:07.801Z,18.40
2022-11-05T20:31:34.778Z,25.57
2022-11-05T20:34:01.893Z,18.77
2022-11-05T20:36:28.855Z,18.47
2022-11-05T20:38:58.197Z,22.87
2022-11-05T20:41:26.184Z,18.07
2022-11-05T20:43:54.024Z,18.50
2022-11-05T20:46:22.184Z,65.87
2022-11-05T20:48:49.497Z,19.70
2022-11-05T20:51:19.137Z,61.17
2022-11-05T20:53:46.489Z,33.53
2022-11-05T20:56:22.788Z,36.67
2022-11-05T20:58:50.665Z,28.40
2022-11-05T21:01:18.768Z,33.60
2022-11-05T21:03:47.129Z,53.47
2022-11-05T21:06:14.836Z,34.10
2022-11-05T21:08:42.101Z,37.20
2022-11-05T21:11:10.202Z,23.63
2022-11-05T21:13:37.838Z,23.83
2022-11-05T21:16:07.343Z,21.27
2022-11-05T21:18:36.040Z,17.57
2022-11-05T21:21:13.320Z,20.70
2022-11-05T21:23:41.796Z,18.27
2022-11-05T21:26:11.936Z,18.47
2022-11-05T21:28:40.355Z,16.13
2022-11-05T21:31:07.715Z,15.00
2022-11-05T21:33:34.751Z,19.40
2022-11-05T21:36:07.682Z,15.73
2022-11-05T21:38:34.675Z,16.93
2022-11-05T21:41:05.108Z,17.10
2022-11-05T21:43:32.565Z,15.00
2022-11-05T21:46:04.290Z,15.90
2022-11-05T21:48:31.860Z,17.23
2022-11-05T21:51:17.556Z,15.00
2022-11-05T21:54:03.174Z,17.47
2022-11-05T21:56:49.500Z,15.40
2022-11-05T21:59:37.488Z,19.10
2022-11-05T22:02:05.131Z,40.27
2022-11-05T22:04:34.813Z,27.07
2022-11-05T22:07:02.585Z,44.67
2022-11-05T22:09:29.897Z,26.00
2022-11-05T22:11:57.254Z,20.10
2022-11-05T22:14:24.786Z,23.03
2022-11-05T22:16:52.076Z,27.13
2022-11-05T22:19:19.935Z,36.70
2022-11-05T22:21:46.974Z,24.13
2022-11-05T22:24:14.189Z,23.67
2022-11-05T22:26:41.999Z,18.50
2022-11-05T22:29:09.657Z,15.93
2022-11-05T22:31:36.994Z,19.70
2022-11-05T22:34:06.014Z,16.37
2022-11-05T22:36:34.665Z,13.97
2022-11-05T22:39:02.385Z,19.10
2022-11-05T22:41:29.714Z,18.93
2022-11-05T22:43:56.976Z,15.90
2022-11-05T22:46:26.414Z,16.17
2022-11-05T22:48:54.129Z,20.40
2022-11-05T22:51:23.873Z,15.20
2022-11-05T22:53:51.017Z,16.97
2022-11-05T22:56:20.519Z,17.73
2022-11-05T22:58:48.166Z,18.97
2022-11-05T23:01:16.082Z,17.33
2022-11-05T23:03:45.187Z,24.93
2022-11-05T23:06:36.569Z,24.83
2022-11-05T23:09:25.401Z,25.97
2022-11-05T23:11:54.013Z,18.90
2022-11-05T23:14:21.069Z,36.93
2022-11-05T23:17:06.687Z,33.03
2022-11-05T23:19:52.403Z,23.73
2022-11-05T23:22:44.390Z,19.93
2022-11-05T23:25:14.666Z,33.80
2022-11-05T23:27:41.798Z,25.87
2022-11-05T23:30:15.718Z,18.73
2022-11-05T23:32:42.657Z,18.00
2022-11-05T23:35:10.144Z,15.60
2022-11-05T23:37:55.989Z,14.13
2022-11-05T23:40:29.748Z,17.43
2022-11-05T23:43:35.914Z,17.50
2022-11-05T23:46:21.556Z,16.77
2022-11-05T23:48:48.571Z,15.50
2022-11-05T23:51:15.558Z,13.97
2022-11-05T23:53:42.510Z,13.37
2022-11-05T23:56:12.528Z,17.27
2022-11-05T23:58:41.183Z,17.17
